Yami!tiii — A8XN9 — position and weather

sailwx.info

Track history (hours):
 
Tides and Currents Weather Stations Pressure Air Temp Water Temp Dewpoint Dewpoint Depression Visibility Wind Speed Wind Dir Waves Ship Positions

Yami!tiii

Last reported at 2017-Oct-19 01:04 UTC. Time now 2017-Oct-20 01:30 UTC.
Position N 01°20' E 104°05'.

Length 228 m; draft 8.5 m.

Type: Ship. MMSI: 635961366.

Date/timePositionNaut miles runAvg speedWind from/ knotsBaromVisibWave heightAir tempDewpointWater temp
2017-Oct-19 01:04N 01°20' E 104°05'0 3.3
2017-Oct-19 00:59N 01°20' E 104°05'1 3.0
2017-Oct-19 00:31N 01°21' E 104°04'1 2.2
2017-Oct-19 00:01N 01°21' E 104°03'1 2.7
2017-Oct-18 23:30N 01°22' E 104°02'2 3.9
2017-Oct-18 23:00N 01°24' E 104°00'44 8.3
2017-Oct-18 17:43N 01°22' E 103°17'414.0
2017-Oct-18 17:27N 01°19' E 103°19'613.1
2017-Oct-18 16:59N 01°15' E 103°23'713.8
2017-Oct-18 16:30N 01°12' E 103°30'713.5
2017-Oct-18 15:59N 01°12' E 103°36'612.8
2017-Oct-18 15:30N 01°10' E 103°42'611.8
2017-Oct-18 15:00N 01°11' E 103°48'1414.3
2017-Oct-18 14:00N 01°15' E 104°02'510.7
2017-Oct-18 13:30N 01°19' E 104°06'8 9.5
2017-Oct-18 12:41N 01°25' E 104°00'7 0.5
2017-Oct-17 21:14N 01°19' E 104°06'0 1.4
2017-Oct-17 21:00N 01°19' E 104°06'1 1.8
2017-Oct-17 20:28N 01°19' E 104°07'1 1.4
2017-Oct-17 20:00N 01°19' E 104°07'1 1.2
2017-Oct-17 19:25N 01°18' E 104°08'8 0.8
2017-Oct-17 09:43N 01°23' E 104°02'312.3
2017-Oct-17 09:30N 01°21' E 104°04'3 7.1
2017-Oct-17 09:00N 01°19' E 104°06'2 3.3
2017-Oct-17 08:28N 01°18' E 104°08'0 0.0
2017-Oct-17 07:58N 01°18' E 104°08'0 0.1
2017-Oct-17 07:22N 01°18' E 104°08'0 0.0
2017-Oct-17 06:58N 01°18' E 104°08'0 0.1
2017-Oct-17 06:23N 01°18' E 104°08'1 3.5
2017-Oct-17 05:59N 01°19' E 104°09'2 0.1
2017-Oct-16 06:42N 01°17' E 104°10'1 1.0
2017-Oct-16 06:11N 01°17' E 104°10'6 2.6
2017-Oct-16 03:57N 01°15' E 104°05'1 3.0
2017-Oct-16 03:29N 01°15' E 104°03'2 3.0
2017-Oct-16 02:57N 01°15' E 104°02'1 3.2
2017-Oct-16 02:30N 01°15' E 104°00'20 5.3
2017-Oct-15 22:47N 01°12' E 103°41'0 0.1
2017-Oct-15 22:30N 01°12' E 103°41'0 0.1
2017-Oct-15 20:40N 01°12' E 103°41'0 0.0
2017-Oct-15 20:27N 01°12' E 103°41'2928.4
2017-Oct-15 19:25N 01°19' E 104°10'10 6.2
2017-Oct-15 17:44N 01°14' E 103°60'314.1
2017-Oct-15 17:31N 01°13' E 103°57'714.5
2017-Oct-15 17:00N 01°11' E 103°50'714.3
2017-Oct-15 16:30N 01°06' E 103°45'713.0
2017-Oct-15 16:00N 01°02' E 103°39'611.4
2017-Oct-15 15:29N 01°05' E 103°34'4 8.8
2017-Oct-15 15:00N 01°09' E 103°34'8 7.9
2017-Oct-15 14:00N 01°12' E 103°41'0 0.2
2017-Oct-15 13:31N 01°12' E 103°41'0 0.0
2017-Oct-15 13:00N 01°12' E 103°41'0 0.0
2017-Oct-15 12:30N 01°12' E 103°41'0 0.4
2017-Oct-15 12:00N 01°12' E 103°41'0 0.1
2017-Oct-15 11:31N 01°12' E 103°41'0 0.2
2017-Oct-15 11:00N 01°12' E 103°41'2 4.9
2017-Oct-15 10:30N 01°14' E 103°39'3 5.8
2017-Oct-15 10:00N 01°17' E 103°40'1 3.0
2017-Oct-15 09:31N 01°18' E 103°42'0 0.1
2017-Oct-15 08:59N 01°18' E 103°42'0 0.0
2017-Oct-15 08:29N 01°18' E 103°42'0 0.0
2017-Oct-15 07:59N 01°18' E 103°42'0 0.0
2017-Oct-15 07:11N 01°18' E 103°42'0 0.0
2017-Oct-15 06:59N 01°18' E 103°42'0 0.0
2017-Oct-15 06:26N 01°18' E 103°42'0 0.0
2017-Oct-15 05:53N 01°18' E 103°42'0 0.0
2017-Oct-15 05:29N 01°18' E 103°42'0 0.0
2017-Oct-15 04:56N 01°18' E 103°42'0 0.0
2017-Oct-15 04:29N 01°18' E 103°42'0 0.0
2017-Oct-15 03:56N 01°18' E 103°42'0 0.0
2017-Oct-15 03:26N 01°18' E 103°42'0 0.0
2017-Oct-15 02:50N 01°18' E 103°42'0 0.0
2017-Oct-15 02:26N 01°18' E 103°42'0 0.0
2017-Oct-15 01:50N 01°18' E 103°42'0 0.0
2017-Oct-15 01:23N 01°18' E 103°42'0 0.0
2017-Oct-15 00:53N 01°18' E 103°42'0 0.0
2017-Oct-15 00:17N 01°18' E 103°42'0 0.0
2017-Oct-14 23:56N 01°18' E 103°42'0 0.0
2017-Oct-14 23:20N 01°18' E 103°42'0 0.0
2017-Oct-14 22:59N 01°18' E 103°42'0 0.0
2017-Oct-14 22:26N 01°18' E 103°42'0 0.0
2017-Oct-14 21:59N 01°18' E 103°42'0 0.0
2017-Oct-14 21:29N 01°18' E 103°42'0 0.0
2017-Oct-14 20:41N 01°18' E 103°42'0 0.0
2017-Oct-14 20:26N 01°18' E 103°42'0 0.0
2017-Oct-14 19:56N 01°18' E 103°42'0 0.0
2017-Oct-14 19:29N 01°18' E 103°42'0 0.0
2017-Oct-14 18:56N 01°18' E 103°42'0 0.0
2017-Oct-14 18:26N 01°18' E 103°42'0 0.0
2017-Oct-14 17:53N 01°18' E 103°42'0 0.0
2017-Oct-14 17:29N 01°18' E 103°42'0 0.0
2017-Oct-14 16:59N 01°18' E 103°42'0 0.0
2017-Oct-14 16:29N 01°18' E 103°42'0 0.0
2017-Oct-14 15:53N 01°18' E 103°42'0 0.0
2017-Oct-14 15:20N 01°18' E 103°42'0 0.0
2017-Oct-14 14:56N 01°18' E 103°42'0 0.0
2017-Oct-14 14:26N 01°18' E 103°42'0 0.0
2017-Oct-14 13:59N 01°18' E 103°42'0 0.0
2017-Oct-14 13:20N 01°18' E 103°42'0 0.0
2017-Oct-14 12:56N 01°18' E 103°42'0 0.0
2017-Oct-14 12:26N 01°18' E 103°42'0 0.0
2017-Oct-14 11:59N 01°18' E 103°42'0 0.4
2017-Oct-14 11:28N 01°18' E 103°41'0 0.7
2017-Oct-14 10:54N 01°18' E 103°41'1 1.3
2017-Oct-14 10:29N 01°18' E 103°42'0 0.0
2017-Oct-14 09:53N 01°18' E 103°42'0 0.0
2017-Oct-14 09:29N 01°18' E 103°42'0 0.0
2017-Oct-14 08:59N 01°18' E 103°42'0 0.0
2017-Oct-14 08:23N 01°18' E 103°42'0 0.0
2017-Oct-14 07:59N 01°18' E 103°42'0 0.0
2017-Oct-14 07:29N 01°18' E 103°42'0 0.0
2017-Oct-14 06:56N 01°18' E 103°42'0 0.0
2017-Oct-14 06:29N 01°18' E 103°42'0 0.0
2017-Oct-14 05:56N 01°18' E 103°42'0 0.0
2017-Oct-14 05:26N 01°18' E 103°42'0 0.0
2017-Oct-14 04:59N 01°18' E 103°42'0 0.0
2017-Oct-14 04:29N 01°18' E 103°42'0 0.0
2017-Oct-14 03:59N 01°18' E 103°42'0 0.0
2017-Oct-14 03:26N 01°18' E 103°42'0 0.0
2017-Oct-14 02:56N 01°18' E 103°42'0 0.0
2017-Oct-14 02:29N 01°18' E 103°42'0 0.0
2017-Oct-14 01:59N 01°18' E 103°42'0 0.0
2017-Oct-14 01:20N 01°18' E 103°42'0 0.0
2017-Oct-14 00:59N 01°18' E 103°42'0 0.0
2017-Oct-14 00:29N 01°18' E 103°42'0 0.0
2017-Oct-14 00:00N 01°18' E 103°42'1 1.9
2017-Oct-13 23:31N 01°17' E 103°41'3 6.0
2017-Oct-13 23:00N 01°15' E 103°40'4 7.9
2017-Oct-13 22:30N 01°15' E 103°43'4 7.4
2017-Oct-13 22:00N 01°14' E 103°47'1 1.3
2017-Oct-13 21:29N 01°14' E 103°48'0 0.1
2017-Oct-13 20:59N 01°14' E 103°48'0 0.2
2017-Oct-13 20:29N 01°14' E 103°48'0 0.1
2017-Oct-13 19:59N 01°14' E 103°48'0 0.0
2017-Oct-13 06:12N 01°14' E 103°48'0 0.2
2017-Oct-13 05:11N 01°14' E 103°47'0 0.1
2017-Oct-13 04:59N 01°14' E 103°47'0 0.2
2017-Oct-13 04:29N 01°14' E 103°48'0 0.1
2017-Oct-13 03:59N 01°14' E 103°48'0 0.1
2017-Oct-13 03:29N 01°14' E 103°47'0 0.1
2017-Oct-13 02:59N 01°14' E 103°48'0 0.0
2017-Oct-13 02:29N 01°14' E 103°48'0 0.0
2017-Oct-13 01:59N 01°14' E 103°48'0 0.0
2017-Oct-13 01:29N 01°14' E 103°48'0 0.4
2017-Oct-13 00:52N 01°14' E 103°48'0 0.7
2017-Oct-13 00:29N 01°14' E 103°47'0 0.0
2017-Oct-12 23:56N 01°14' E 103°47'0 0.0
2017-Oct-12 23:29N 01°14' E 103°47'0 0.2
2017-Oct-12 22:56N 01°14' E 103°48'0 0.1
2017-Oct-12 22:29N 01°14' E 103°48'0 0.0
2017-Oct-12 21:59N 01°14' E 103°48'0 0.1
2017-Oct-12 21:29N 01°14' E 103°48'0 0.1
2017-Oct-12 20:59N 01°14' E 103°48'0 0.1
2017-Oct-12 20:23N 01°14' E 103°48'0 0.2
2017-Oct-12 19:59N 01°14' E 103°48'0 0.0
2017-Oct-12 19:29N 01°14' E 103°48'0 0.1
2017-Oct-12 18:53N 01°14' E 103°48'0 0.0
2017-Oct-12 18:29N 01°14' E 103°48'0 0.0
2017-Oct-12 17:59N 01°14' E 103°48'0 0.1
2017-Oct-12 17:29N 01°14' E 103°48'0 0.0
2017-Oct-12 16:53N 01°14' E 103°48'0 0.0
2017-Oct-12 16:29N 01°14' E 103°48'0 0.0
2017-Oct-12 15:59N 01°14' E 103°48'0 0.0
2017-Oct-12 15:29N 01°14' E 103°48'0 0.0
2017-Oct-12 14:59N 01°14' E 103°48'0 0.0
2017-Oct-12 14:29N 01°14' E 103°48'0 0.0
2017-Oct-12 13:59N 01°14' E 103°48'0 0.0
2017-Oct-12 13:29N 01°14' E 103°48'0 0.0
2017-Oct-12 12:56N 01°14' E 103°48'0 0.0
2017-Oct-12 12:29N 01°14' E 103°48'0 0.0
2017-Oct-12 11:53N 01°14' E 103°48'0 0.0
2017-Oct-12 11:29N 01°14' E 103°48'0 0.0
2017-Oct-12 10:59N 01°14' E 103°48'0 0.1
2017-Oct-12 10:29N 01°14' E 103°48'0 0.4
2017-Oct-12 09:58N 01°14' E 103°48'0 0.0
2017-Oct-12 09:30N 01°14' E 103°48'0 0.4
2017-Oct-12 08:59N 01°14' E 103°48'0 0.2
2017-Oct-12 08:29N 01°14' E 103°48'0 0.1
2017-Oct-12 07:59N 01°14' E 103°48'0 0.1
2017-Oct-12 07:26N 01°14' E 103°48'0 0.1
2017-Oct-12 06:56N 01°14' E 103°47'0 0.2
2017-Oct-12 06:29N 01°14' E 103°48'0 0.1
2017-Oct-12 05:59N 01°14' E 103°48'0 0.0
2017-Oct-12 05:29N 01°14' E 103°48'0 0.3
2017-Oct-12 04:56N 01°14' E 103°47'0 0.2
2017-Oct-12 04:23N 01°14' E 103°48'0 0.3
2017-Oct-12 04:00N 01°14' E 103°47'0 0.2
2017-Oct-12 03:23N 01°14' E 103°48'0 0.0
2017-Oct-12 02:56N 01°14' E 103°48'0 0.3
2017-Oct-12 02:24N 01°14' E 103°47'0 0.4
2017-Oct-12 01:59N 01°14' E 103°48'0 0.1
2017-Oct-12 01:26N 01°14' E 103°48'0 0.1
2017-Oct-12 00:59N 01°14' E 103°48'0 0.3
2017-Oct-12 00:29N 01°14' E 103°48'0 0.0
2017-Oct-11 23:59N 01°14' E 103°48'0 0.1
2017-Oct-11 23:29N 01°14' E 103°48'0 0.2
2017-Oct-11 22:59N 01°14' E 103°48'0 0.1
2017-Oct-11 22:29N 01°14' E 103°48'0 0.0
2017-Oct-11 21:59N 01°14' E 103°48'0 0.5
2017-Oct-11 21:30N 01°14' E 103°48'0 0.0
2017-Oct-11 21:00N 01°14' E 103°48'0 0.4
2017-Oct-11 20:23N 01°14' E 103°47'0 0.0
2017-Oct-11 19:59N 01°14' E 103°47'0 0.0
2017-Oct-11 19:29N 01°14' E 103°47'0 0.0
2017-Oct-11 18:59N 01°14' E 103°47'0 0.1
2017-Oct-11 18:29N 01°14' E 103°47'0 0.1
2017-Oct-11 17:59N 01°14' E 103°48'0 0.1
2017-Oct-11 17:29N 01°14' E 103°48'0 0.1
2017-Oct-11 16:59N 01°14' E 103°48'0 0.0
2017-Oct-10 23:59N 01°14' E 103°48'0 0.0
2017-Oct-10 23:29N 01°14' E 103°48'0 0.0
2017-Oct-10 22:59N 01°14' E 103°48'0 0.1
2017-Oct-10 22:29N 01°14' E 103°48'0 0.0
2017-Oct-10 21:59N 01°14' E 103°48'0 0.0
2017-Oct-10 21:29N 01°14' E 103°48'0 0.1
2017-Oct-10 20:59N 01°14' E 103°48'0 0.1
2017-Oct-10 20:27N 01°14' E 103°48'0 0.4
2017-Oct-10 19:59N 01°14' E 103°48'0 0.1
2017-Oct-10 19:29N 01°14' E 103°47'0 0.0
2017-Oct-10 18:59N 01°14' E 103°47'0 0.1
2017-Oct-10 18:29N 01°14' E 103°48'0 0.1
2017-Oct-10 17:59N 01°14' E 103°48'0 0.1
2017-Oct-10 17:29N 01°14' E 103°48'0 0.0
2017-Oct-10 16:56N 01°14' E 103°48'0 0.2
2017-Oct-10 16:29N 01°14' E 103°48'0 0.0
2017-Oct-10 15:59N 01°14' E 103°48'0 0.0
2017-Oct-10 15:29N 01°14' E 103°48'0 0.1
2017-Oct-10 14:59N 01°14' E 103°48'0 0.1
2017-Oct-10 13:59N 01°14' E 103°48'0 0.0
2017-Oct-10 13:29N 01°14' E 103°48'0 0.0
2017-Oct-10 12:59N 01°14' E 103°48'0 0.0
2017-Oct-10 12:29N 01°14' E 103°48'0 0.0
2017-Oct-10 11:59N 01°14' E 103°48'0 0.0
2017-Oct-10 11:29N 01°14' E 103°48'0 0.0
2017-Oct-10 10:59N 01°14' E 103°48'0 0.0
2017-Oct-10 10:29N 01°14' E 103°48'0 0.0
2017-Oct-10 09:59N 01°14' E 103°48'0 0.0
2017-Oct-10 09:29N 01°14' E 103°48'0 0.0
2017-Oct-10 08:59N 01°14' E 103°48'0 0.1
2017-Oct-10 08:29N 01°14' E 103°48'0 0.0
2017-Oct-10 07:59N 01°14' E 103°48'0 0.0
2017-Oct-10 07:29N 01°14' E 103°48'0 0.0
2017-Oct-10 06:59N 01°14' E 103°48'0 0.1
2017-Oct-10 06:29N 01°14' E 103°48'0 0.1
2017-Oct-10 05:59N 01°14' E 103°48'0 0.1
2017-Oct-10 05:29N 01°14' E 103°48'0 0.1
2017-Oct-10 04:59N 01°14' E 103°48'0 0.1
2017-Oct-10 04:29N 01°14' E 103°48'0 0.1
2017-Oct-10 03:59N 01°14' E 103°48'0 0.0
2017-Oct-10 03:29N 01°14' E 103°48'0 0.0
2017-Oct-10 02:59N 01°14' E 103°48'0 0.0
2017-Oct-10 02:29N 01°14' E 103°48'0 0.4
2017-Oct-10 01:57N 01°14' E 103°48'0 0.5
2017-Oct-10 01:29N 01°14' E 103°48'0 0.0
2017-Oct-10 00:59N 01°14' E 103°48'0 0.1
2017-Oct-10 00:29N 01°14' E 103°48'0 0.1
2017-Oct-09 23:53N 01°14' E 103°48'0 0.2
2017-Oct-09 23:29N 01°14' E 103°48'0 0.1
2017-Oct-09 22:57N 01°14' E 103°48'0 0.4
2017-Oct-09 22:29N 01°14' E 103°48'0 0.1
2017-Oct-09 21:59N 01°14' E 103°48'0 0.1
2017-Oct-09 21:26N 01°14' E 103°48'0 0.0
2017-Oct-09 20:59N 01°14' E 103°48'0 0.0
2017-Oct-09 20:27N 01°14' E 103°48'0 0.3
2017-Oct-09 19:59N 01°14' E 103°48'0 0.0
2017-Oct-09 19:29N 01°14' E 103°48'0 0.3
2017-Oct-09 18:56N 01°14' E 103°48'0 0.0
2017-Oct-09 18:24N 01°14' E 103°48'0 0.2
2017-Oct-09 17:59N 01°14' E 103°48'0 0.2
2017-Oct-09 17:29N 01°14' E 103°48'0 0.1
2017-Oct-09 16:59N 01°14' E 103°48'0 0.1
2017-Oct-09 16:29N 01°14' E 103°48'0 0.1
2017-Oct-09 15:56N 01°14' E 103°48'0 0.1
2017-Oct-09 15:29N 01°14' E 103°48'0 0.1
2017-Oct-09 14:59N 01°14' E 103°48'0 0.1
2017-Oct-09 14:29N 01°14' E 103°48'0 0.2
2017-Oct-09 13:59N 01°14' E 103°48'0 0.1
2017-Oct-09 13:26N 01°14' E 103°48'0 0.0
2017-Oct-09 12:59N 01°14' E 103°48'0 0.0
2017-Oct-09 12:29N 01°14' E 103°48'0 0.0
2017-Oct-09 11:59N 01°14' E 103°48'0 0.0
2017-Oct-09 11:29N 01°14' E 103°48'0 0.0
2017-Oct-09 10:59N 01°14' E 103°48'0 0.0
2017-Oct-09 10:26N 01°14' E 103°48'0 0.0
2017-Oct-09 09:56N 01°14' E 103°48'0 0.0
2017-Oct-09 09:26N 01°14' E 103°48'0 0.0
2017-Oct-09 08:59N 01°14' E 103°48'1020.9
2017-Oct-09 08:30N 01°15' E 103°58'0 0.4
2017-Oct-09 08:00N 01°16' E 103°58'0 0.0
2017-Oct-09 07:30N 01°16' E 103°58'0 0.1
2017-Oct-09 07:00N 01°16' E 103°58'0 0.4
2017-Oct-09 06:30N 01°16' E 103°58'1120.6
2017-Oct-09 05:59N 01°14' E 103°48'0 0.1
2017-Oct-09 05:29N 01°14' E 103°48'0 0.0
2017-Oct-09 04:59N 01°14' E 103°48'0 0.0
2017-Oct-09 04:26N 01°14' E 103°48'0 0.1
2017-Oct-09 03:59N 01°14' E 103°48'0 0.1
2017-Oct-09 03:29N 01°14' E 103°48'0 0.2
2017-Oct-09 02:59N 01°14' E 103°47'0 0.2
2017-Oct-09 02:29N 01°14' E 103°47'0 0.0
2017-Oct-09 01:59N 01°14' E 103°47'0 0.2
2017-Oct-09 01:30N 01°14' E 103°47'  
Track history (hours):
 
Tides and Currents Weather Stations Pressure Air Temp Water Temp Dewpoint Dewpoint Depression Visibility Wind Speed Wind Dir Waves Ship Positions

Yami!tiii

Last reported at 2017-Oct-19 01:04 UTC. Time now 2017-Oct-20 01:30 UTC.
Position N 01°20' E 104°05'.

Length 228 m; draft 8.5 m.

Type: Ship. MMSI: 635961366.

Date/timePositionNaut miles runAvg speedWind from/ knotsBaromVisibWave heightAir tempDewpointWater temp
2017-Oct-19 01:04N 01°20' E 104°05'0 3.3
2017-Oct-19 00:59N 01°20' E 104°05'1 3.0
2017-Oct-19 00:31N 01°21' E 104°04'1 2.2
2017-Oct-19 00:01N 01°21' E 104°03'1 2.7
2017-Oct-18 23:30N 01°22' E 104°02'2 3.9
2017-Oct-18 23:00N 01°24' E 104°00'44 8.3
2017-Oct-18 17:43N 01°22' E 103°17'414.0
2017-Oct-18 17:27N 01°19' E 103°19'613.1
2017-Oct-18 16:59N 01°15' E 103°23'713.8
2017-Oct-18 16:30N 01°12' E 103°30'713.5
2017-Oct-18 15:59N 01°12' E 103°36'612.8
2017-Oct-18 15:30N 01°10' E 103°42'611.8
2017-Oct-18 15:00N 01°11' E 103°48'1414.3
2017-Oct-18 14:00N 01°15' E 104°02'510.7
2017-Oct-18 13:30N 01°19' E 104°06'8 9.5
2017-Oct-18 12:41N 01°25' E 104°00'7 0.5
2017-Oct-17 21:14N 01°19' E 104°06'0 1.4
2017-Oct-17 21:00N 01°19' E 104°06'1 1.8
2017-Oct-17 20:28N 01°19' E 104°07'1 1.4
2017-Oct-17 20:00N 01°19' E 104°07'1 1.2
2017-Oct-17 19:25N 01°18' E 104°08'8 0.8
2017-Oct-17 09:43N 01°23' E 104°02'312.3
2017-Oct-17 09:30N 01°21' E 104°04'3 7.1
2017-Oct-17 09:00N 01°19' E 104°06'2 3.3
2017-Oct-17 08:28N 01°18' E 104°08'0 0.0
2017-Oct-17 07:58N 01°18' E 104°08'0 0.1
2017-Oct-17 07:22N 01°18' E 104°08'0 0.0
2017-Oct-17 06:58N 01°18' E 104°08'0 0.1
2017-Oct-17 06:23N 01°18' E 104°08'1 3.5
2017-Oct-17 05:59N 01°19' E 104°09'2 0.1
2017-Oct-16 06:42N 01°17' E 104°10'1 1.0
2017-Oct-16 06:11N 01°17' E 104°10'6 2.6
2017-Oct-16 03:57N 01°15' E 104°05'1 3.0
2017-Oct-16 03:29N 01°15' E 104°03'2 3.0
2017-Oct-16 02:57N 01°15' E 104°02'1 3.2
2017-Oct-16 02:30N 01°15' E 104°00'20 5.3
2017-Oct-15 22:47N 01°12' E 103°41'0 0.1
2017-Oct-15 22:30N 01°12' E 103°41'0 0.1
2017-Oct-15 20:40N 01°12' E 103°41'0 0.0
2017-Oct-15 20:27N 01°12' E 103°41'2928.4
2017-Oct-15 19:25N 01°19' E 104°10'10 6.2
2017-Oct-15 17:44N 01°14' E 103°60'314.1
2017-Oct-15 17:31N 01°13' E 103°57'714.5
2017-Oct-15 17:00N 01°11' E 103°50'714.3
2017-Oct-15 16:30N 01°06' E 103°45'713.0
2017-Oct-15 16:00N 01°02' E 103°39'611.4
2017-Oct-15 15:29N 01°05' E 103°34'4 8.8
2017-Oct-15 15:00N 01°09' E 103°34'8 7.9
2017-Oct-15 14:00N 01°12' E 103°41'0 0.2
2017-Oct-15 13:31N 01°12' E 103°41'0 0.0
2017-Oct-15 13:00N 01°12' E 103°41'0 0.0
2017-Oct-15 12:30N 01°12' E 103°41'0 0.4
2017-Oct-15 12:00N 01°12' E 103°41'0 0.1
2017-Oct-15 11:31N 01°12' E 103°41'0 0.2
2017-Oct-15 11:00N 01°12' E 103°41'2 4.9
2017-Oct-15 10:30N 01°14' E 103°39'3 5.8
2017-Oct-15 10:00N 01°17' E 103°40'1 3.0
2017-Oct-15 09:31N 01°18' E 103°42'0 0.1
2017-Oct-15 08:59N 01°18' E 103°42'0 0.0
2017-Oct-15 08:29N 01°18' E 103°42'0 0.0
2017-Oct-15 07:59N 01°18' E 103°42'0 0.0
2017-Oct-15 07:11N 01°18' E 103°42'0 0.0
2017-Oct-15 06:59N 01°18' E 103°42'0 0.0
2017-Oct-15 06:26N 01°18' E 103°42'0 0.0
2017-Oct-15 05:53N 01°18' E 103°42'0 0.0
2017-Oct-15 05:29N 01°18' E 103°42'0 0.0
2017-Oct-15 04:56N 01°18' E 103°42'0 0.0
2017-Oct-15 04:29N 01°18' E 103°42'0 0.0
2017-Oct-15 03:56N 01°18' E 103°42'0 0.0
2017-Oct-15 03:26N 01°18' E 103°42'0 0.0
2017-Oct-15 02:50N 01°18' E 103°42'0 0.0
2017-Oct-15 02:26N 01°18' E 103°42'0 0.0
2017-Oct-15 01:50N 01°18' E 103°42'0 0.0
2017-Oct-15 01:23N 01°18' E 103°42'0 0.0
2017-Oct-15 00:53N 01°18' E 103°42'0 0.0
2017-Oct-15 00:17N 01°18' E 103°42'0 0.0
2017-Oct-14 23:56N 01°18' E 103°42'0 0.0
2017-Oct-14 23:20N 01°18' E 103°42'0 0.0
2017-Oct-14 22:59N 01°18' E 103°42'0 0.0
2017-Oct-14 22:26N 01°18' E 103°42'0 0.0
2017-Oct-14 21:59N 01°18' E 103°42'0 0.0
2017-Oct-14 21:29N 01°18' E 103°42'0 0.0
2017-Oct-14 20:41N 01°18' E 103°42'0 0.0
2017-Oct-14 20:26N 01°18' E 103°42'0 0.0
2017-Oct-14 19:56N 01°18' E 103°42'0 0.0
2017-Oct-14 19:29N 01°18' E 103°42'0 0.0
2017-Oct-14 18:56N 01°18' E 103°42'0 0.0
2017-Oct-14 18:26N 01°18' E 103°42'0 0.0
2017-Oct-14 17:53N 01°18' E 103°42'0 0.0
2017-Oct-14 17:29N 01°18' E 103°42'0 0.0
2017-Oct-14 16:59N 01°18' E 103°42'0 0.0
2017-Oct-14 16:29N 01°18' E 103°42'0 0.0
2017-Oct-14 15:53N 01°18' E 103°42'0 0.0
2017-Oct-14 15:20N 01°18' E 103°42'0 0.0
2017-Oct-14 14:56N 01°18' E 103°42'0 0.0
2017-Oct-14 14:26N 01°18' E 103°42'0 0.0
2017-Oct-14 13:59N 01°18' E 103°42'0 0.0
2017-Oct-14 13:20N 01°18' E 103°42'0 0.0
2017-Oct-14 12:56N 01°18' E 103°42'0 0.0
2017-Oct-14 12:26N 01°18' E 103°42'0 0.0
2017-Oct-14 11:59N 01°18' E 103°42'0 0.4
2017-Oct-14 11:28N 01°18' E 103°41'0 0.7
2017-Oct-14 10:54N 01°18' E 103°41'1 1.3
2017-Oct-14 10:29N 01°18' E 103°42'0 0.0
2017-Oct-14 09:53N 01°18' E 103°42'0 0.0
2017-Oct-14 09:29N 01°18' E 103°42'0 0.0
2017-Oct-14 08:59N 01°18' E 103°42'0 0.0
2017-Oct-14 08:23N 01°18' E 103°42'0 0.0
2017-Oct-14 07:59N 01°18' E 103°42'0 0.0
2017-Oct-14 07:29N 01°18' E 103°42'0 0.0
2017-Oct-14 06:56N 01°18' E 103°42'0 0.0
2017-Oct-14 06:29N 01°18' E 103°42'0 0.0
2017-Oct-14 05:56N 01°18' E 103°42'0 0.0
2017-Oct-14 05:26N 01°18' E 103°42'0 0.0
2017-Oct-14 04:59N 01°18' E 103°42'0 0.0
2017-Oct-14 04:29N 01°18' E 103°42'0 0.0
2017-Oct-14 03:59N 01°18' E 103°42'0 0.0
2017-Oct-14 03:26N 01°18' E 103°42'0 0.0
2017-Oct-14 02:56N 01°18' E 103°42'0 0.0
2017-Oct-14 02:29N 01°18' E 103°42'0 0.0
2017-Oct-14 01:59N 01°18' E 103°42'0 0.0
2017-Oct-14 01:20N 01°18' E 103°42'0 0.0
2017-Oct-14 00:59N 01°18' E 103°42'0 0.0
2017-Oct-14 00:29N 01°18' E 103°42'0 0.0
2017-Oct-14 00:00N 01°18' E 103°42'1 1.9
2017-Oct-13 23:31N 01°17' E 103°41'3 6.0
2017-Oct-13 23:00N 01°15' E 103°40'4 7.9
2017-Oct-13 22:30N 01°15' E 103°43'4 7.4
2017-Oct-13 22:00N 01°14' E 103°47'1 1.3
2017-Oct-13 21:29N 01°14' E 103°48'0 0.1
2017-Oct-13 20:59N 01°14' E 103°48'0 0.2
2017-Oct-13 20:29N 01°14' E 103°48'0 0.1
2017-Oct-13 19:59N 01°14' E 103°48'0 0.0
2017-Oct-13 06:12N 01°14' E 103°48'0 0.2
2017-Oct-13 05:11N 01°14' E 103°47'0 0.1
2017-Oct-13 04:59N 01°14' E 103°47'0 0.2
2017-Oct-13 04:29N 01°14' E 103°48'0 0.1
2017-Oct-13 03:59N 01°14' E 103°48'0 0.1
2017-Oct-13 03:29N 01°14' E 103°47'0 0.1
2017-Oct-13 02:59N 01°14' E 103°48'0 0.0
2017-Oct-13 02:29N 01°14' E 103°48'0 0.0
2017-Oct-13 01:59N 01°14' E 103°48'0 0.0
2017-Oct-13 01:29N 01°14' E 103°48'0 0.4
2017-Oct-13 00:52N 01°14' E 103°48'0 0.7
2017-Oct-13 00:29N 01°14' E 103°47'0 0.0
2017-Oct-12 23:56N 01°14' E 103°47'0 0.0
2017-Oct-12 23:29N 01°14' E 103°47'0 0.2
2017-Oct-12 22:56N 01°14' E 103°48'0 0.1
2017-Oct-12 22:29N 01°14' E 103°48'0 0.0
2017-Oct-12 21:59N 01°14' E 103°48'0 0.1
2017-Oct-12 21:29N 01°14' E 103°48'0 0.1
2017-Oct-12 20:59N 01°14' E 103°48'0 0.1
2017-Oct-12 20:23N 01°14' E 103°48'0 0.2
2017-Oct-12 19:59N 01°14' E 103°48'0 0.0
2017-Oct-12 19:29N 01°14' E 103°48'0 0.1
2017-Oct-12 18:53N 01°14' E 103°48'0 0.0
2017-Oct-12 18:29N 01°14' E 103°48'0 0.0
2017-Oct-12 17:59N 01°14' E 103°48'0 0.1
2017-Oct-12 17:29N 01°14' E 103°48'0 0.0
2017-Oct-12 16:53N 01°14' E 103°48'0 0.0
2017-Oct-12 16:29N 01°14' E 103°48'0 0.0
2017-Oct-12 15:59N 01°14' E 103°48'0 0.0
2017-Oct-12 15:29N 01°14' E 103°48'0 0.0
2017-Oct-12 14:59N 01°14' E 103°48'0 0.0
2017-Oct-12 14:29N 01°14' E 103°48'0 0.0
2017-Oct-12 13:59N 01°14' E 103°48'0 0.0
2017-Oct-12 13:29N 01°14' E 103°48'0 0.0
2017-Oct-12 12:56N 01°14' E 103°48'0 0.0
2017-Oct-12 12:29N 01°14' E 103°48'0 0.0
2017-Oct-12 11:53N 01°14' E 103°48'0 0.0
2017-Oct-12 11:29N 01°14' E 103°48'0 0.0
2017-Oct-12 10:59N 01°14' E 103°48'0 0.1
2017-Oct-12 10:29N 01°14' E 103°48'0 0.4
2017-Oct-12 09:58N 01°14' E 103°48'0 0.0
2017-Oct-12 09:30N 01°14' E 103°48'0 0.4
2017-Oct-12 08:59N 01°14' E 103°48'0 0.2
2017-Oct-12 08:29N 01°14' E 103°48'0 0.1
2017-Oct-12 07:59N 01°14' E 103°48'0 0.1
2017-Oct-12 07:26N 01°14' E 103°48'0 0.1
2017-Oct-12 06:56N 01°14' E 103°47'0 0.2
2017-Oct-12 06:29N 01°14' E 103°48'0 0.1
2017-Oct-12 05:59N 01°14' E 103°48'0 0.0
2017-Oct-12 05:29N 01°14' E 103°48'0 0.3
2017-Oct-12 04:56N 01°14' E 103°47'0 0.2
2017-Oct-12 04:23N 01°14' E 103°48'0 0.3
2017-Oct-12 04:00N 01°14' E 103°47'0 0.2
2017-Oct-12 03:23N 01°14' E 103°48'0 0.0
2017-Oct-12 02:56N 01°14' E 103°48'0 0.3
2017-Oct-12 02:24N 01°14' E 103°47'0 0.4
2017-Oct-12 01:59N 01°14' E 103°48'0 0.1
2017-Oct-12 01:26N 01°14' E 103°48'0 0.1
2017-Oct-12 00:59N 01°14' E 103°48'0 0.3
2017-Oct-12 00:29N 01°14' E 103°48'0 0.0
2017-Oct-11 23:59N 01°14' E 103°48'0 0.1
2017-Oct-11 23:29N 01°14' E 103°48'0 0.2
2017-Oct-11 22:59N 01°14' E 103°48'0 0.1
2017-Oct-11 22:29N 01°14' E 103°48'0 0.0
2017-Oct-11 21:59N 01°14' E 103°48'0 0.5
2017-Oct-11 21:30N 01°14' E 103°48'0 0.0
2017-Oct-11 21:00N 01°14' E 103°48'0 0.4
2017-Oct-11 20:23N 01°14' E 103°47'0 0.0
2017-Oct-11 19:59N 01°14' E 103°47'0 0.0
2017-Oct-11 19:29N 01°14' E 103°47'0 0.0
2017-Oct-11 18:59N 01°14' E 103°47'0 0.1
2017-Oct-11 18:29N 01°14' E 103°47'0 0.1
2017-Oct-11 17:59N 01°14' E 103°48'0 0.1
2017-Oct-11 17:29N 01°14' E 103°48'0 0.1
2017-Oct-11 16:59N 01°14' E 103°48'0 0.0
2017-Oct-10 23:59N 01°14' E 103°48'0 0.0
2017-Oct-10 23:29N 01°14' E 103°48'0 0.0
2017-Oct-10 22:59N 01°14' E 103°48'0 0.1
2017-Oct-10 22:29N 01°14' E 103°48'0 0.0
2017-Oct-10 21:59N 01°14' E 103°48'0 0.0
2017-Oct-10 21:29N 01°14' E 103°48'0 0.1
2017-Oct-10 20:59N 01°14' E 103°48'0 0.1
2017-Oct-10 20:27N 01°14' E 103°48'0 0.4
2017-Oct-10 19:59N 01°14' E 103°48'0 0.1
2017-Oct-10 19:29N 01°14' E 103°47'0 0.0
2017-Oct-10 18:59N 01°14' E 103°47'0 0.1
2017-Oct-10 18:29N 01°14' E 103°48'0 0.1
2017-Oct-10 17:59N 01°14' E 103°48'0 0.1
2017-Oct-10 17:29N 01°14' E 103°48'0 0.0
2017-Oct-10 16:56N 01°14' E 103°48'0 0.2
2017-Oct-10 16:29N 01°14' E 103°48'0 0.0
2017-Oct-10 15:59N 01°14' E 103°48'0 0.0
2017-Oct-10 15:29N 01°14' E 103°48'0 0.1
2017-Oct-10 14:59N 01°14' E 103°48'0 0.1
2017-Oct-10 13:59N 01°14' E 103°48'0 0.0
2017-Oct-10 13:29N 01°14' E 103°48'0 0.0
2017-Oct-10 12:59N 01°14' E 103°48'0 0.0
2017-Oct-10 12:29N 01°14' E 103°48'0 0.0
2017-Oct-10 11:59N 01°14' E 103°48'0 0.0
2017-Oct-10 11:29N 01°14' E 103°48'0 0.0
2017-Oct-10 10:59N 01°14' E 103°48'0 0.0
2017-Oct-10 10:29N 01°14' E 103°48'0 0.0
2017-Oct-10 09:59N 01°14' E 103°48'0 0.0
2017-Oct-10 09:29N 01°14' E 103°48'0 0.0
2017-Oct-10 08:59N 01°14' E 103°48'0 0.1
2017-Oct-10 08:29N 01°14' E 103°48'0 0.0
2017-Oct-10 07:59N 01°14' E 103°48'0 0.0
2017-Oct-10 07:29N 01°14' E 103°48'0 0.0
2017-Oct-10 06:59N 01°14' E 103°48'0 0.1
2017-Oct-10 06:29N 01°14' E 103°48'0 0.1
2017-Oct-10 05:59N 01°14' E 103°48'0 0.1
2017-Oct-10 05:29N 01°14' E 103°48'0 0.1
2017-Oct-10 04:59N 01°14' E 103°48'0 0.1
2017-Oct-10 04:29N 01°14' E 103°48'0 0.1
2017-Oct-10 03:59N 01°14' E 103°48'0 0.0
2017-Oct-10 03:29N 01°14' E 103°48'0 0.0
2017-Oct-10 02:59N 01°14' E 103°48'0 0.0
2017-Oct-10 02:29N 01°14' E 103°48'0 0.4
2017-Oct-10 01:57N 01°14' E 103°48'0 0.5
2017-Oct-10 01:29N 01°14' E 103°48'0 0.0
2017-Oct-10 00:59N 01°14' E 103°48'0 0.1
2017-Oct-10 00:29N 01°14' E 103°48'0 0.1
2017-Oct-09 23:53N 01°14' E 103°48'0 0.2
2017-Oct-09 23:29N 01°14' E 103°48'0 0.1
2017-Oct-09 22:57N 01°14' E 103°48'0 0.4
2017-Oct-09 22:29N 01°14' E 103°48'0 0.1
2017-Oct-09 21:59N 01°14' E 103°48'0 0.1
2017-Oct-09 21:26N 01°14' E 103°48'0 0.0
2017-Oct-09 20:59N 01°14' E 103°48'0 0.0
2017-Oct-09 20:27N 01°14' E 103°48'0 0.3
2017-Oct-09 19:59N 01°14' E 103°48'0 0.0
2017-Oct-09 19:29N 01°14' E 103°48'0 0.3
2017-Oct-09 18:56N 01°14' E 103°48'0 0.0
2017-Oct-09 18:24N 01°14' E 103°48'0 0.2
2017-Oct-09 17:59N 01°14' E 103°48'0 0.2
2017-Oct-09 17:29N 01°14' E 103°48'0 0.1
2017-Oct-09 16:59N 01°14' E 103°48'0 0.1
2017-Oct-09 16:29N 01°14' E 103°48'0 0.1
2017-Oct-09 15:56N 01°14' E 103°48'0 0.1
2017-Oct-09 15:29N 01°14' E 103°48'0 0.1
2017-Oct-09 14:59N 01°14' E 103°48'0 0.1
2017-Oct-09 14:29N 01°14' E 103°48'0 0.2
2017-Oct-09 13:59N 01°14' E 103°48'0 0.1
2017-Oct-09 13:26N 01°14' E 103°48'0 0.0
2017-Oct-09 12:59N 01°14' E 103°48'0 0.0
2017-Oct-09 12:29N 01°14' E 103°48'0 0.0
2017-Oct-09 11:59N 01°14' E 103°48'0 0.0
2017-Oct-09 11:29N 01°14' E 103°48'0 0.0
2017-Oct-09 10:59N 01°14' E 103°48'0 0.0
2017-Oct-09 10:26N 01°14' E 103°48'0 0.0
2017-Oct-09 09:56N 01°14' E 103°48'0 0.0
2017-Oct-09 09:26N 01°14' E 103°48'0 0.0
2017-Oct-09 08:59N 01°14' E 103°48'1020.9
2017-Oct-09 08:30N 01°15' E 103°58'0 0.4
2017-Oct-09 08:00N 01°16' E 103°58'0 0.0
2017-Oct-09 07:30N 01°16' E 103°58'0 0.1
2017-Oct-09 07:00N 01°16' E 103°58'0 0.4
2017-Oct-09 06:30N 01°16' E 103°58'1120.6
2017-Oct-09 05:59N 01°14' E 103°48'0 0.1
2017-Oct-09 05:29N 01°14' E 103°48'0 0.0
2017-Oct-09 04:59N 01°14' E 103°48'0 0.0
2017-Oct-09 04:26N 01°14' E 103°48'0 0.1
2017-Oct-09 03:59N 01°14' E 103°48'0 0.1
2017-Oct-09 03:29N 01°14' E 103°48'0 0.2
2017-Oct-09 02:59N 01°14' E 103°47'0 0.2
2017-Oct-09 02:29N 01°14' E 103°47'0 0.0
2017-Oct-09 01:59N 01°14' E 103°47'0 0.2
2017-Oct-09 01:30N 01°14' E 103°47'  

Dump ship's entire track history